createdAt,value
2023-04-01T00:02:24.242Z,2.13
2023-04-01T00:04:51.064Z,2.13
2023-04-01T00:07:17.691Z,2.55
2023-04-01T00:09:44.270Z,2.72
2023-04-01T00:12:10.852Z,2.13
2023-04-01T00:14:38.038Z,2.80
2023-04-01T00:17:04.724Z,1.98
2023-04-01T00:19:32.834Z,2.88
2023-04-01T00:21:59.528Z,2.40
2023-04-01T00:24:26.196Z,2.60
2023-04-01T00:26:52.741Z,2.27
2023-04-01T00:29:19.232Z,2.80
2023-04-01T00:31:45.814Z,2.83
2023-04-01T00:34:13.165Z,2.58
2023-04-01T00:36:39.807Z,2.47
2023-04-01T00:39:06.284Z,2.47
2023-04-01T00:41:32.828Z,2.75
2023-04-01T00:44:23.042Z,2.67
2023-04-01T00:46:50.034Z,2.80
2023-04-01T00:49:19.896Z,3.10
2023-04-01T00:51:49.310Z,2.03
2023-04-01T00:54:18.506Z,2.35
2023-04-01T00:56:52.291Z,2.90
2023-04-01T00:59:25.741Z,2.38
2023-04-01T01:01:52.430Z,2.60
2023-04-01T01:04:27.907Z,2.40
2023-04-01T01:06:58.545Z,1.88
2023-04-01T01:09:34.339Z,2.25
2023-04-01T01:12:19.464Z,2.00
2023-04-01T01:14:56.162Z,2.15
2023-04-01T01:17:49.565Z,2.27
2023-04-01T01:21:01.402Z,2.88
2023-04-01T01:24:09.161Z,2.60
2023-04-01T01:26:56.926Z,2.50
2023-04-01T01:29:43.581Z,2.67
2023-04-01T01:32:38.554Z,2.73
2023-04-01T01:35:20.306Z,3.28
2023-04-01T01:37:50.971Z,3.13
2023-04-01T01:40:17.851Z,2.95
2023-04-01T01:42:48.580Z,3.00
2023-04-01T01:45:19.757Z,3.33
2023-04-01T01:47:48.606Z,3.28
2023-04-01T01:50:17.153Z,3.95
2023-04-01T01:52:43.652Z,3.95
2023-04-01T01:55:29.359Z,3.40
2023-04-01T01:58:00.620Z,4.23
2023-04-01T02:00:28.778Z,4.47
2023-04-01T02:02:56.557Z,4.75
2023-04-01T02:05:26.499Z,4.85
2023-04-01T02:08:01.727Z,5.35
2023-04-01T02:10:32.239Z,4.63
2023-04-01T02:13:05.163Z,5.00
2023-04-01T02:15:35.927Z,4.28
2023-04-01T02:18:03.940Z,4.63
2023-04-01T02:20:31.009Z,5.10
2023-04-01T02:23:00.597Z,4.93
2023-04-01T02:25:35.774Z,5.35
2023-04-01T02:28:04.830Z,5.53
2023-04-01T02:30:34.579Z,5.90
2023-04-01T02:33:02.210Z,6.50
2023-04-01T02:35:31.291Z,5.23
2023-04-01T02:37:57.960Z,6.53
2023-04-01T02:40:24.486Z,6.90
2023-04-01T02:42:51.706Z,7.15
2023-04-01T02:45:18.715Z,6.30
2023-04-01T02:47:45.302Z,7.07
2023-04-01T02:50:11.979Z,6.90
2023-04-01T02:52:38.767Z,7.18
2023-04-01T02:55:07.797Z,7.30
2023-04-01T02:57:34.695Z,7.55
2023-04-01T03:00:01.369Z,7.33
2023-04-01T03:02:28.076Z,6.93
2023-04-01T03:04:54.718Z,7.82
2023-04-01T03:07:21.310Z,7.05
2023-04-01T03:09:49.375Z,6.50
2023-04-01T03:12:15.903Z,7.17
2023-04-01T03:14:49.962Z,7.35
2023-04-01T03:17:16.517Z,6.93
2023-04-01T03:19:43.031Z,7.32
2023-04-01T03:22:12.085Z,7.15
2023-04-01T03:24:38.566Z,7.83
2023-04-01T03:27:05.095Z,8.48
2023-04-01T03:29:31.689Z,7.57
2023-04-01T03:31:59.775Z,8.10
2023-04-01T03:34:26.920Z,7.75
2023-04-01T03:36:53.794Z,7.97
2023-04-01T03:39:20.467Z,8.50
2023-04-01T03:41:47.577Z,7.65
2023-04-01T03:44:14.350Z,8.48
2023-04-01T03:46:41.532Z,8.93
2023-04-01T03:49:12.397Z,9.07
2023-04-01T03:51:40.301Z,8.55
2023-04-01T03:54:07.080Z,8.10
2023-04-01T03:56:33.725Z,8.02
2023-04-01T03:59:03.857Z,8.60
2023-04-01T04:01:30.639Z,8.17
2023-04-01T04:03:57.664Z,7.70
2023-04-01T04:06:25.306Z,8.32
2023-04-01T04:08:52.655Z,6.97
2023-04-01T04:11:20.201Z,8.05
2023-04-01T04:13:48.903Z,7.13
2023-04-01T04:16:17.495Z,6.80
2023-04-01T04:18:48.293Z,6.07
2023-04-01T04:21:16.351Z,5.75
2023-04-01T04:23:44.036Z,6.00
2023-04-01T04:26:14.033Z,6.13
2023-04-01T04:28:40.674Z,5.85
2023-04-01T04:31:08.694Z,6.10
2023-04-01T04:33:36.535Z,6.03
2023-04-01T04:36:05.434Z,5.72
2023-04-01T04:38:32.378Z,5.60
2023-04-01T04:40:59.656Z,5.38
2023-04-01T04:43:26.281Z,4.88
2023-04-01T04:45:52.836Z,4.63
2023-04-01T04:48:21.081Z,4.38
2023-04-01T04:50:50.079Z,4.77
2023-04-01T04:53:20.219Z,4.72
2023-04-01T04:55:49.133Z,4.43
2023-04-01T04:58:39.044Z,4.80
2023-04-01T05:01:12.433Z,5.00
2023-04-01T05:03:40.000Z,4.27
2023-04-01T05:06:08.880Z,4.55
2023-04-01T05:08:36.247Z,4.00
2023-04-01T05:11:03.938Z,4.63
2023-04-01T05:13:32.928Z,3.95
2023-04-01T05:15:59.433Z,4.67
2023-04-01T05:18:25.966Z,4.85
2023-04-01T05:20:54.402Z,4.50
2023-04-01T05:23:22.626Z,5.05
2023-04-01T05:25:50.709Z,4.20
2023-04-01T05:28:17.517Z,4.77
2023-04-01T05:30:46.852Z,4.30
2023-04-01T05:33:24.722Z,4.15
2023-04-01T05:35:51.288Z,4.40
2023-04-01T05:38:17.844Z,4.05
2023-04-01T05:40:44.433Z,4.57
2023-04-01T05:43:11.377Z,4.50
2023-04-01T05:45:38.589Z,4.70
2023-04-01T05:48:31.126Z,5.07
2023-04-01T05:50:58.406Z,4.55
2023-04-01T05:53:25.316Z,4.93
2023-04-01T05:55:51.885Z,5.13
2023-04-01T05:58:18.760Z,4.90
2023-04-01T06:00:47.946Z,4.68
2023-04-01T06:03:17.041Z,5.20
2023-04-01T06:05:45.106Z,5.27
2023-04-01T06:08:20.083Z,5.72
2023-04-01T06:11:21.685Z,6.57
2023-04-01T06:14:18.138Z,5.50
2023-04-01T06:17:09.800Z,5.68
2023-04-01T06:19:42.748Z,5.83
2023-04-01T06:22:21.297Z,5.93
2023-04-01T06:24:59.205Z,6.20
2023-04-01T06:27:46.978Z,6.30
2023-04-01T06:30:38.348Z,5.40
2023-04-01T06:33:45.938Z,6.70
2023-04-01T06:36:37.415Z,5.82
2023-04-01T06:39:33.291Z,7.30
2023-04-01T06:42:15.820Z,5.72
2023-04-01T06:44:45.670Z,7.95
2023-04-01T06:47:37.926Z,8.27
2023-04-01T06:50:31.824Z,6.68
2023-04-01T06:53:52.862Z,6.80
2023-04-01T06:56:42.913Z,7.75
2023-04-01T06:59:20.736Z,7.03
2023-04-01T07:02:08.766Z,8.73
2023-04-01T07:04:40.193Z,6.70
2023-04-01T07:07:15.641Z,7.45
2023-04-01T07:09:56.255Z,8.10
2023-04-01T07:12:32.000Z,8.13
2023-04-01T07:16:00.663Z,7.67
2023-04-01T07:18:43.934Z,7.47
2023-04-01T07:21:33.562Z,7.05
2023-04-01T07:24:22.984Z,7.88
2023-04-01T07:27:01.400Z,6.55
2023-04-01T07:29:35.719Z,7.77
2023-04-01T07:32:13.171Z,8.30
2023-04-01T07:35:04.208Z,7.47
2023-04-01T07:37:55.625Z,8.27
2023-04-01T07:40:26.183Z,8.38
2023-04-01T07:43:34.745Z,8.10
2023-04-01T07:47:08.370Z,7.95
2023-04-01T07:49:55.866Z,6.80
2023-04-01T07:52:36.783Z,7.05
2023-04-01T07:55:40.945Z,7.28
2023-04-01T07:58:32.211Z,7.10
2023-04-01T08:01:25.168Z,7.30
2023-04-01T08:03:52.146Z,7.05
2023-04-01T08:06:31.233Z,6.65
2023-04-01T08:09:18.973Z,5.95
2023-04-01T08:12:42.382Z,5.93
2023-04-01T08:15:58.191Z,6.50
2023-04-01T08:19:05.692Z,5.53
2023-04-01T08:21:51.731Z,5.75
2023-04-01T08:24:34.436Z,6.82
2023-04-01T08:27:29.392Z,5.03
2023-04-01T08:30:24.290Z,5.07
2023-04-01T08:33:09.288Z,5.55
2023-04-01T08:35:52.792Z,5.38
2023-04-01T08:38:45.630Z,4.97
2023-04-01T08:41:31.161Z,5.00
2023-04-01T08:44:31.126Z,4.82
2023-04-01T08:47:22.682Z,5.38
2023-04-01T08:50:23.455Z,4.90
2023-04-01T08:53:42.187Z,5.70
2023-04-01T08:56:48.967Z,5.23
2023-04-01T08:59:18.288Z,4.18
2023-04-01T09:02:05.590Z,4.85
2023-04-01T09:05:07.750Z,5.30
2023-04-01T09:07:41.274Z,4.90
2023-04-01T09:10:35.808Z,4.83
2023-04-01T09:13:41.365Z,5.32
2023-04-01T09:16:24.338Z,5.10
2023-04-01T09:19:32.484Z,5.88
2023-04-01T09:22:25.781Z,4.70
2023-04-01T09:25:26.525Z,4.17
2023-04-01T09:28:17.396Z,5.60
2023-04-01T09:31:02.221Z,4.13
2023-04-01T09:33:48.065Z,3.60
2023-04-01T09:36:45.323Z,3.90
2023-04-01T09:39:24.083Z,3.67
2023-04-01T09:42:28.345Z,3.50
2023-04-01T09:45:36.317Z,3.17
2023-04-01T09:48:07.043Z,3.20
2023-04-01T09:50:37.783Z,3.25
2023-04-01T09:53:18.667Z,3.17
2023-04-01T09:56:06.396Z,2.90
2023-04-01T09:58:58.115Z,2.78
2023-04-01T10:02:05.260Z,2.88
2023-04-01T10:05:04.043Z,2.83
2023-04-01T10:07:52.428Z,2.47
2023-04-01T10:10:53.514Z,2.47
2023-04-01T10:13:56.719Z,2.53
2023-04-01T10:16:38.930Z,2.80
2023-04-01T10:19:33.511Z,2.80
2023-04-01T10:22:25.808Z,3.10
2023-04-01T10:25:06.400Z,3.03
2023-04-01T10:28:03.645Z,2.83
2023-04-01T10:31:20.565Z,2.55
2023-04-01T10:33:47.417Z,2.50
2023-04-01T10:36:46.429Z,3.03
2023-04-01T10:39:31.829Z,3.33
2023-04-01T10:42:35.127Z,3.40
2023-04-01T10:45:32.808Z,2.88
2023-04-01T10:48:21.521Z,3.28
2023-04-01T10:51:10.333Z,2.20
2023-04-01T10:53:55.709Z,2.30
2023-04-01T10:56:55.725Z,2.60
2023-04-01T11:00:16.923Z,2.70
2023-04-01T11:03:40.429Z,2.83
2023-04-01T11:07:06.385Z,1.90
2023-04-01T11:09:39.188Z,2.10
2023-04-01T11:12:44.817Z,1.95
2023-04-01T11:15:38.517Z,2.40
2023-04-01T11:18:33.836Z,2.42
2023-04-01T11:21:33.470Z,2.27
2023-04-01T11:24:21.884Z,2.42
2023-04-01T11:27:21.243Z,2.80
2023-04-01T11:30:00.524Z,1.98
2023-04-01T11:32:50.946Z,2.35
2023-04-01T11:35:31.950Z,2.10
2023-04-01T11:38:23.414Z,2.70
2023-04-01T11:41:03.775Z,2.25
2023-04-01T11:44:14.343Z,2.25
2023-04-01T11:46:52.242Z,2.47
2023-04-01T11:50:00.233Z,1.83
2023-04-01T11:52:48.412Z,0.95
2023-04-01T11:55:29.323Z,0.88
2023-04-01T11:58:16.795Z,0.90
2023-04-01T12:01:12.206Z,1.15
2023-04-01T12:03:57.853Z,1.40
2023-04-01T12:06:32.036Z,1.48
2023-04-01T12:09:11.412Z,2.00
2023-04-01T12:11:57.318Z,1.95
2023-04-01T12:14:37.406Z,2.17
2023-04-01T12:17:25.943Z,2.60
2023-04-01T12:20:11.165Z,2.13
2023-04-01T12:23:05.604Z,2.35
2023-04-01T12:25:56.769Z,2.00
2023-04-01T12:29:05.564Z,1.75
2023-04-01T12:32:11.048Z,1.70
2023-04-01T12:34:49.536Z,2.08
2023-04-01T12:37:46.196Z,1.90
2023-04-01T12:40:34.095Z,1.70
2023-04-01T12:43:15.881Z,1.85
2023-04-01T12:45:56.433Z,1.87
2023-04-01T12:48:38.304Z,1.95
2023-04-01T12:51:23.489Z,1.80
2023-04-01T12:54:05.978Z,1.40
2023-04-01T12:56:50.835Z,0.80
2023-04-01T12:59:56.222Z,1.00
2023-04-01T13:02:31.461Z,1.10
2023-04-01T13:05:21.035Z,1.10
2023-04-01T13:08:18.292Z,1.10
2023-04-01T13:10:57.922Z,1.60
2023-04-01T13:13:30.504Z,1.70
2023-04-01T13:16:06.343Z,1.50
2023-04-01T13:19:04.789Z,1.80
2023-04-01T13:21:50.043Z,1.90
2023-04-01T13:24:38.559Z,2.20
2023-04-01T13:27:18.050Z,2.00
2023-04-01T13:29:55.845Z,2.60
2023-04-01T13:32:42.499Z,2.88
2023-04-01T13:35:25.306Z,2.35
2023-04-01T13:38:30.923Z,2.80
2023-04-01T13:41:12.427Z,2.13
2023-04-01T13:43:44.677Z,2.88
2023-04-01T13:46:36.609Z,2.63
2023-04-01T13:49:22.140Z,2.90
2023-04-01T13:52:18.101Z,2.80
2023-04-01T13:55:21.734Z,3.70
2023-04-01T13:58:14.902Z,4.20
2023-04-01T14:00:57.281Z,3.45
2023-04-01T14:03:41.725Z,3.50
2023-04-01T14:06:19.150Z,3.40
2023-04-01T14:09:05.762Z,2.83
2023-04-01T14:11:46.489Z,3.40
2023-04-01T14:14:31.303Z,3.63
2023-04-01T14:17:39.616Z,2.80
2023-04-01T14:20:26.699Z,2.90
2023-04-01T14:23:17.390Z,3.00
2023-04-01T14:25:56.541Z,2.88
2023-04-01T14:28:41.203Z,3.15
2023-04-01T14:31:29.813Z,2.70
2023-04-01T14:34:17.838Z,2.83
2023-04-01T14:37:22.816Z,2.73
2023-04-01T14:39:58.546Z,3.35
2023-04-01T14:42:28.091Z,2.65
2023-04-01T14:45:25.971Z,2.42
2023-04-01T14:48:00.903Z,2.78
2023-04-01T14:50:42.057Z,3.40
2023-04-01T14:53:08.751Z,3.25
2023-04-01T14:55:48.988Z,3.30
2023-04-01T14:58:18.603Z,3.55
2023-04-01T15:01:13.978Z,3.40
2023-04-01T15:03:54.750Z,2.40
2023-04-01T15:06:50.425Z,2.80
2023-04-01T15:09:37.850Z,2.55
2023-04-01T15:12:23.815Z,2.70
2023-04-01T15:15:24.935Z,2.78
2023-04-01T15:18:00.625Z,3.27
2023-04-01T15:20:51.784Z,2.35
2023-04-01T15:23:32.328Z,3.03
2023-04-01T15:26:25.493Z,3.85
2023-04-01T15:29:31.683Z,3.28
2023-04-01T15:32:33.840Z,3.00
2023-04-01T15:35:16.101Z,3.05
2023-04-01T15:38:00.428Z,3.40
2023-04-01T15:40:38.171Z,2.70
2023-04-01T15:43:23.057Z,3.05
2023-04-01T15:45:59.229Z,2.80
2023-04-01T15:48:41.902Z,3.67
2023-04-01T15:51:32.731Z,3.08
2023-04-01T15:54:25.426Z,3.50
2023-04-01T15:57:27.745Z,3.50
2023-04-01T15:59:58.511Z,2.40
2023-04-01T16:02:52.570Z,3.03
2023-04-01T16:05:26.656Z,3.67
2023-04-01T16:08:02.336Z,3.80
2023-04-01T16:11:06.152Z,4.40
2023-04-01T16:13:53.624Z,3.00
2023-04-01T16:16:36.217Z,2.90
2023-04-01T16:19:02.722Z,3.10
2023-04-01T16:21:52.911Z,2.90
2023-04-01T16:24:31.139Z,3.42
2023-04-01T16:27:01.458Z,4.50
2023-04-01T16:29:36.631Z,2.80
2023-04-01T16:32:18.577Z,2.55
2023-04-01T16:35:15.752Z,3.30
2023-04-01T16:38:10.491Z,2.90
2023-04-01T16:40:59.915Z,2.70
2023-04-01T16:43:31.577Z,2.78
2023-04-01T16:46:15.965Z,2.90
2023-04-01T16:49:04.222Z,2.67
2023-04-01T16:51:44.019Z,2.78
2023-04-01T16:54:17.858Z,3.10
2023-04-01T16:56:56.074Z,2.83
2023-04-01T16:59:39.117Z,2.80
2023-04-01T17:02:13.858Z,2.20
2023-04-01T17:04:56.843Z,3.10
2023-04-01T17:07:49.014Z,2.40
2023-04-01T17:10:34.003Z,2.50
2023-04-01T17:13:28.973Z,2.65
2023-04-01T17:16:07.799Z,2.60
2023-04-01T17:19:06.077Z,2.28
2023-04-01T17:21:52.851Z,2.70
2023-04-01T17:24:57.719Z,2.55
2023-04-01T17:27:49.515Z,3.20
2023-04-01T17:30:39.855Z,3.45
2023-04-01T17:33:25.391Z,4.05
2023-04-01T17:36:02.580Z,4.90
2023-04-01T17:38:51.121Z,3.10
2023-04-01T17:41:58.273Z,3.25
2023-04-01T17:44:50.317Z,2.80
2023-04-01T17:47:30.858Z,3.05
2023-04-01T17:50:15.436Z,2.27
2023-04-01T17:53:02.290Z,2.50
2023-04-01T17:55:50.352Z,2.47
2023-04-01T17:58:22.982Z,2.97
2023-04-01T18:01:09.447Z,2.67
2023-04-01T18:04:14.798Z,2.40
2023-04-01T18:06:57.033Z,3.10
2023-04-01T18:09:49.927Z,2.90
2023-04-01T18:12:33.550Z,2.90
2023-04-01T18:15:12.463Z,2.38
2023-04-01T18:17:51.226Z,2.47
2023-04-01T18:20:39.134Z,2.40
2023-04-01T18:23:17.961Z,2.55
2023-04-01T18:25:49.586Z,2.70
2023-04-01T18:28:19.821Z,2.25
2023-04-01T18:30:58.661Z,2.50
2023-04-01T18:33:47.400Z,2.28
2023-04-01T18:36:25.705Z,2.90
2023-04-01T18:38:55.420Z,2.38
2023-04-01T18:41:27.990Z,2.88
2023-04-01T18:44:32.015Z,2.57
2023-04-01T18:47:09.220Z,2.80
2023-04-01T18:50:26.082Z,2.78
2023-04-01T18:53:09.574Z,2.97
2023-04-01T18:55:43.963Z,4.38
2023-04-01T18:58:36.757Z,4.20
2023-04-01T19:01:03.335Z,4.63
2023-04-01T19:03:42.153Z,4.40
2023-04-01T19:06:22.494Z,4.25
2023-04-01T19:08:49.300Z,5.20
2023-04-01T19:11:50.494Z,4.90
2023-04-01T19:14:27.968Z,4.28
2023-04-01T19:17:17.327Z,4.70
2023-04-01T19:19:49.580Z,4.60
2023-04-01T19:22:37.731Z,4.50
2023-04-01T19:25:24.458Z,5.10
2023-04-01T19:28:08.496Z,4.57
2023-04-01T19:30:35.538Z,4.30
2023-04-01T19:33:23.875Z,4.80
2023-04-01T19:36:09.306Z,4.93
2023-04-01T19:38:40.265Z,4.50
2023-04-01T19:41:25.786Z,6.05
2023-04-01T19:44:17.742Z,4.57
2023-04-01T19:46:50.818Z,5.28
2023-04-01T19:49:35.606Z,5.53
2023-04-01T19:52:15.536Z,5.93
2023-04-01T19:54:52.080Z,5.70
2023-04-01T19:57:41.282Z,5.38
2023-04-01T20:00:17.565Z,5.22
2023-04-01T20:03:23.604Z,4.90
2023-04-01T20:06:14.533Z,4.43
2023-04-01T20:08:51.878Z,5.55
2023-04-01T20:11:39.319Z,5.13
2023-04-01T20:14:16.208Z,6.22
2023-04-01T20:17:03.838Z,5.40
2023-04-01T20:20:05.196Z,5.17
2023-04-01T20:22:46.890Z,4.88
2023-04-01T20:25:14.126Z,4.63
2023-04-01T20:27:48.363Z,4.88
2023-04-01T20:30:43.549Z,4.97
2023-04-01T20:33:27.807Z,5.03
2023-04-01T20:36:06.869Z,4.93
2023-04-01T20:38:45.415Z,5.15
2023-04-01T20:41:24.027Z,6.07
2023-04-01T20:43:50.448Z,5.65
2023-04-01T20:46:24.165Z,5.97
2023-04-01T20:49:44.566Z,6.15
2023-04-01T20:52:13.678Z,6.22
2023-04-01T20:54:51.940Z,6.75
2023-04-01T20:57:44.348Z,6.22
2023-04-01T21:00:34.414Z,5.60
2023-04-01T21:03:01.120Z,7.03
2023-04-01T21:05:36.752Z,7.03
2023-04-01T21:08:12.417Z,6.07
2023-04-01T21:10:46.921Z,6.07
2023-04-01T21:13:37.999Z,5.70
2023-04-01T21:16:32.299Z,6.28
2023-04-01T21:19:09.750Z,6.15
2023-04-01T21:22:09.122Z,5.50
2023-04-01T21:25:09.013Z,6.18
2023-04-01T21:27:50.693Z,5.27
2023-04-01T21:30:44.993Z,5.63
2023-04-01T21:33:36.208Z,5.40
2023-04-01T21:36:28.625Z,5.18
2023-04-01T21:39:20.146Z,5.20
2023-04-01T21:42:16.054Z,5.03
2023-04-01T21:44:59.274Z,5.20
2023-04-01T21:48:03.285Z,5.10
2023-04-01T21:50:53.973Z,5.22
2023-04-01T21:53:43.900Z,5.15
2023-04-01T21:56:32.135Z,5.60
2023-04-01T21:59:07.675Z,6.45
2023-04-01T22:02:08.265Z,6.25
2023-04-01T22:04:41.567Z,6.95
2023-04-01T22:07:21.006Z,7.50
2023-04-01T22:10:05.760Z,8.80
2023-04-01T22:12:51.220Z,8.05
2023-04-01T22:15:33.196Z,9.75
2023-04-01T22:18:10.421Z,7.60
2023-04-01T22:20:58.328Z,7.28
2023-04-01T22:23:32.105Z,8.43
2023-04-01T22:26:13.645Z,9.38
2023-04-01T22:28:57.033Z,8.13
2023-04-01T22:31:49.955Z,9.32
2023-04-01T22:34:22.107Z,9.05
2023-04-01T22:37:00.692Z,9.77
2023-04-01T22:39:33.242Z,8.63
2023-04-01T22:42:02.270Z,8.73
2023-04-01T22:44:48.514Z,7.43
2023-04-01T22:47:33.575Z,6.95
2023-04-01T22:50:18.794Z,6.43
2023-04-01T22:52:49.199Z,5.85
2023-04-01T22:55:27.590Z,6.30
2023-04-01T22:58:11.209Z,5.32
2023-04-01T23:00:45.825Z,4.40
2023-04-01T23:03:32.072Z,5.17
2023-04-01T23:06:01.184Z,5.07
2023-04-01T23:09:00.820Z,7.18
2023-04-01T23:11:33.269Z,8.95
2023-04-01T23:14:20.194Z,10.18
2023-04-01T23:17:09.565Z,10.00
2023-04-01T23:20:11.735Z,10.90
2023-04-01T23:23:12.184Z,10.00
2023-04-01T23:25:38.677Z,9.68
2023-04-01T23:28:48.319Z,8.95
2023-04-01T23:31:39.237Z,9.47
2023-04-01T23:34:15.262Z,8.35
2023-04-01T23:36:51.704Z,9.00
2023-04-01T23:39:29.236Z,9.85
2023-04-01T23:42:05.695Z,9.32
2023-04-01T23:44:33.703Z,10.17
2023-04-01T23:47:02.091Z,9.20
2023-04-01T23:49:34.411Z,10.02
2023-04-01T23:52:24.690Z,9.10
2023-04-01T23:55:04.593Z,8.18
2023-04-01T23:57:34.199Z,10.07
